sensor_id;sensor_type;location;lat;lon;timestamp;P1;durP1;ratioP1;P2;durP2;ratioP2
73359;SDS011;63092;43.582;19.528;2022-11-15T00:01:54;89.15;;;46.15;;
73359;SDS011;63092;43.582;19.528;2022-11-15T00:04:19;104.15;;;54.40;;
73359;SDS011;63092;43.582;19.528;2022-11-15T00:06:45;104.10;;;53.28;;
73359;SDS011;63092;43.582;19.528;2022-11-15T00:09:11;97.55;;;51.33;;
73359;SDS011;63092;43.582;19.528;2022-11-15T00:11:37;100.15;;;52.55;;
73359;SDS011;63092;43.582;19.528;2022-11-15T00:14:02;81.93;;;44.28;;
73359;SDS011;63092;43.582;19.528;2022-11-15T00:16:28;90.10;;;46.20;;
73359;SDS011;63092;43.582;19.528;2022-11-15T00:18:54;75.53;;;42.70;;
73359;SDS011;63092;43.582;19.528;2022-11-15T00:21:20;73.75;;;40.33;;
73359;SDS011;63092;43.582;19.528;2022-11-15T00:23:45;74.13;;;41.92;;
73359;SDS011;63092;43.582;19.528;2022-11-15T00:26:12;84.13;;;42.40;;
73359;SDS011;63092;43.582;19.528;2022-11-15T00:28:39;93.60;;;48.40;;
73359;SDS011;63092;43.582;19.528;2022-11-15T00:31:08;83.40;;;44.90;;
73359;SDS011;63092;43.582;19.528;2022-11-15T00:33:37;82.53;;;45.13;;
73359;SDS011;63092;43.582;19.528;2022-11-15T00:36:03;91.38;;;48.92;;
73359;SDS011;63092;43.582;19.528;2022-11-15T00:38:34;91.78;;;47.55;;
73359;SDS011;63092;43.582;19.528;2022-11-15T00:41:01;80.55;;;44.60;;
73359;SDS011;63092;43.582;19.528;2022-11-15T00:43:28;90.13;;;45.83;;
73359;SDS011;63092;43.582;19.528;2022-11-15T00:45:54;84.93;;;44.13;;
73359;SDS011;63092;43.582;19.528;2022-11-15T00:48:20;85.82;;;45.67;;
73359;SDS011;63092;43.582;19.528;2022-11-15T00:50:46;91.50;;;49.95;;
73359;SDS011;63092;43.582;19.528;2022-11-15T00:53:12;85.50;;;45.60;;
73359;SDS011;63092;43.582;19.528;2022-11-15T00:55:37;81.03;;;42.03;;
73359;SDS011;63092;43.582;19.528;2022-11-15T00:58:03;78.90;;;42.22;;
73359;SDS011;63092;43.582;19.528;2022-11-15T01:00:29;78.60;;;44.35;;
73359;SDS011;63092;43.582;19.528;2022-11-15T01:02:55;79.82;;;43.08;;
73359;SDS011;63092;43.582;19.528;2022-11-15T01:05:20;76.53;;;43.38;;
73359;SDS011;63092;43.582;19.528;2022-11-15T01:07:46;83.95;;;45.80;;
73359;SDS011;63092;43.582;19.528;2022-11-15T01:10:12;85.57;;;46.53;;
73359;SDS011;63092;43.582;19.528;2022-11-15T01:12:38;86.88;;;49.95;;
73359;SDS011;63092;43.582;19.528;2022-11-15T01:15:04;87.28;;;49.20;;
73359;SDS011;63092;43.582;19.528;2022-11-15T01:17:30;87.60;;;47.58;;
73359;SDS011;63092;43.582;19.528;2022-11-15T01:19:56;92.80;;;48.35;;
73359;SDS011;63092;43.582;19.528;2022-11-15T01:22:22;87.38;;;47.33;;
73359;SDS011;63092;43.582;19.528;2022-11-15T01:24:50;85.60;;;49.63;;
73359;SDS011;63092;43.582;19.528;2022-11-15T01:27:16;79.15;;;43.85;;
73359;SDS011;63092;43.582;19.528;2022-11-15T01:29:42;70.95;;;40.05;;
73359;SDS011;63092;43.582;19.528;2022-11-15T01:32:08;69.25;;;40.90;;
73359;SDS011;63092;43.582;19.528;2022-11-15T01:34:34;74.05;;;42.58;;
73359;SDS011;63092;43.582;19.528;2022-11-15T01:36:59;75.30;;;42.47;;
73359;SDS011;63092;43.582;19.528;2022-11-15T01:39:26;75.07;;;42.47;;
73359;SDS011;63092;43.582;19.528;2022-11-15T01:41:52;76.22;;;43.80;;
73359;SDS011;63092;43.582;19.528;2022-11-15T01:46:56;67.78;;;39.65;;
73359;SDS011;63092;43.582;19.528;2022-11-15T01:49:24;67.13;;;39.55;;
73359;SDS011;63092;43.582;19.528;2022-11-15T01:51:52;72.07;;;41.75;;
73359;SDS011;63092;43.582;19.528;2022-11-15T01:54:20;67.05;;;36.78;;
73359;SDS011;63092;43.582;19.528;2022-11-15T01:56:49;61.33;;;37.10;;
73359;SDS011;63092;43.582;19.528;2022-11-15T01:59:21;58.97;;;35.58;;
73359;SDS011;63092;43.582;19.528;2022-11-15T02:01:47;59.65;;;36.30;;
73359;SDS011;63092;43.582;19.528;2022-11-15T02:04:17;59.17;;;35.25;;
73359;SDS011;63092;43.582;19.528;2022-11-15T02:06:46;57.50;;;34.00;;
73359;SDS011;63092;43.582;19.528;2022-11-15T02:09:13;60.28;;;35.13;;
73359;SDS011;63092;43.582;19.528;2022-11-15T02:11:40;55.03;;;33.25;;
73359;SDS011;63092;43.582;19.528;2022-11-15T02:14:06;51.95;;;32.50;;
73359;SDS011;63092;43.582;19.528;2022-11-15T02:27:53;48.40;;;29.58;;
73359;SDS011;63092;43.582;19.528;2022-11-15T02:30:52;44.33;;;26.27;;
73359;SDS011;63092;43.582;19.528;2022-11-15T02:35:58;46.60;;;28.67;;
73359;SDS011;63092;43.582;19.528;2022-11-15T02:41:13;44.35;;;26.58;;
73359;SDS011;63092;43.582;19.528;2022-11-15T02:43:47;46.47;;;28.88;;
73359;SDS011;63092;43.582;19.528;2022-11-15T02:52:15;53.58;;;33.13;;
73359;SDS011;63092;43.582;19.528;2022-11-15T02:54:42;44.85;;;26.23;;
73359;SDS011;63092;43.582;19.528;2022-11-15T02:57:12;51.22;;;29.58;;
73359;SDS011;63092;43.582;19.528;2022-11-15T03:05:43;35.08;;;20.30;;
73359;SDS011;63092;43.582;19.528;2022-11-15T03:11:12;33.15;;;21.40;;
73359;SDS011;63092;43.582;19.528;2022-11-15T03:14:00;37.55;;;20.83;;
73359;SDS011;63092;43.582;19.528;2022-11-15T03:16:34;37.80;;;22.23;;
73359;SDS011;63092;43.582;19.528;2022-11-15T03:21:59;35.03;;;21.65;;
73359;SDS011;63092;43.582;19.528;2022-11-15T03:26:55;33.80;;;19.70;;
73359;SDS011;63092;43.582;19.528;2022-11-15T03:29:26;34.83;;;21.52;;
73359;SDS011;63092;43.582;19.528;2022-11-15T03:31:58;37.05;;;21.38;;
73359;SDS011;63092;43.582;19.528;2022-11-15T03:34:30;40.53;;;23.63;;
73359;SDS011;63092;43.582;19.528;2022-11-15T03:37:00;40.17;;;23.73;;
73359;SDS011;63092;43.582;19.528;2022-11-15T03:39:26;42.40;;;24.65;;
73359;SDS011;63092;43.582;19.528;2022-11-15T03:44:34;38.78;;;23.42;;
73359;SDS011;63092;43.582;19.528;2022-11-15T03:47:11;43.25;;;24.73;;
73359;SDS011;63092;43.582;19.528;2022-11-15T03:49:45;40.97;;;24.83;;
73359;SDS011;63092;43.582;19.528;2022-11-15T03:52:19;40.67;;;25.90;;
73359;SDS011;63092;43.582;19.528;2022-11-15T03:54:50;52.13;;;30.95;;
73359;SDS011;63092;43.582;19.528;2022-11-15T03:57:19;69.82;;;40.83;;
73359;SDS011;63092;43.582;19.528;2022-11-15T03:59:44;60.42;;;35.70;;
73359;SDS011;63092;43.582;19.528;2022-11-15T04:02:11;60.85;;;35.35;;
73359;SDS011;63092;43.582;19.528;2022-11-15T04:04:37;62.78;;;35.63;;
73359;SDS011;63092;43.582;19.528;2022-11-15T04:07:03;54.50;;;33.28;;
73359;SDS011;63092;43.582;19.528;2022-11-15T04:09:28;57.15;;;31.70;;
73359;SDS011;63092;43.582;19.528;2022-11-15T04:11:54;55.83;;;33.75;;
73359;SDS011;63092;43.582;19.528;2022-11-15T04:14:20;84.20;;;42.80;;
73359;SDS011;63092;43.582;19.528;2022-11-15T04:16:45;75.65;;;37.60;;
73359;SDS011;63092;43.582;19.528;2022-11-15T04:19:11;84.15;;;43.55;;
73359;SDS011;63092;43.582;19.528;2022-11-15T04:21:55;72.28;;;39.22;;
73359;SDS011;63092;43.582;19.528;2022-11-15T04:24:39;56.47;;;32.88;;
73359;SDS011;63092;43.582;19.528;2022-11-15T04:27:05;51.17;;;31.30;;
73359;SDS011;63092;43.582;19.528;2022-11-15T04:29:31;53.42;;;30.92;;
73359;SDS011;63092;43.582;19.528;2022-11-15T04:32:00;52.38;;;29.65;;
73359;SDS011;63092;43.582;19.528;2022-11-15T04:34:30;55.75;;;31.02;;
73359;SDS011;63092;43.582;19.528;2022-11-15T04:36:55;52.35;;;30.77;;
73359;SDS011;63092;43.582;19.528;2022-11-15T04:39:36;49.60;;;29.10;;
73359;SDS011;63092;43.582;19.528;2022-11-15T04:42:02;51.47;;;31.95;;
73359;SDS011;63092;43.582;19.528;2022-11-15T04:44:28;51.80;;;28.95;;
73359;SDS011;63092;43.582;19.528;2022-11-15T04:46:54;49.92;;;30.02;;
73359;SDS011;63092;43.582;19.528;2022-11-15T04:49:20;45.65;;;29.30;;
73359;SDS011;63092;43.582;19.528;2022-11-15T04:51:45;49.58;;;28.98;;
73359;SDS011;63092;43.582;19.528;2022-11-15T04:54:11;54.38;;;29.25;;
73359;SDS011;63092;43.582;19.528;2022-11-15T04:56:37;65.20;;;37.08;;
73359;SDS011;63092;43.582;19.528;2022-11-15T04:59:03;71.20;;;41.70;;
73359;SDS011;63092;43.582;19.528;2022-11-15T05:01:28;72.00;;;40.15;;
73359;SDS011;63092;43.582;19.528;2022-11-15T05:03:54;76.35;;;40.97;;
73359;SDS011;63092;43.582;19.528;2022-11-15T05:06:39;65.50;;;36.35;;
73359;SDS011;63092;43.582;19.528;2022-11-15T05:09:04;70.10;;;39.47;;
73359;SDS011;63092;43.582;19.528;2022-11-15T05:11:30;66.28;;;38.85;;
73359;SDS011;63092;43.582;19.528;2022-11-15T05:13:56;62.10;;;36.13;;
73359;SDS011;63092;43.582;19.528;2022-11-15T05:16:21;65.90;;;35.28;;
73359;SDS011;63092;43.582;19.528;2022-11-15T05:18:50;59.85;;;34.45;;
73359;SDS011;63092;43.582;19.528;2022-11-15T05:21:16;62.08;;;35.75;;
73359;SDS011;63092;43.582;19.528;2022-11-15T05:23:42;69.43;;;37.33;;
73359;SDS011;63092;43.582;19.528;2022-11-15T05:26:08;67.63;;;39.17;;
73359;SDS011;63092;43.582;19.528;2022-11-15T05:28:35;67.20;;;36.72;;
73359;SDS011;63092;43.582;19.528;2022-11-15T05:31:08;66.97;;;41.25;;
73359;SDS011;63092;43.582;19.528;2022-11-15T05:33:36;66.03;;;40.35;;
73359;SDS011;63092;43.582;19.528;2022-11-15T05:36:07;65.00;;;34.92;;
73359;SDS011;63092;43.582;19.528;2022-11-15T05:38:48;70.45;;;37.80;;
73359;SDS011;63092;43.582;19.528;2022-11-15T05:41:15;68.70;;;37.28;;
73359;SDS011;63092;43.582;19.528;2022-11-15T05:43:44;64.55;;;38.92;;
73359;SDS011;63092;43.582;19.528;2022-11-15T05:46:11;76.40;;;49.45;;
73359;SDS011;63092;43.582;19.528;2022-11-15T05:48:39;91.90;;;58.47;;
73359;SDS011;63092;43.582;19.528;2022-11-15T05:51:07;63.03;;;37.08;;
73359;SDS011;63092;43.582;19.528;2022-11-15T05:53:33;60.67;;;34.63;;
73359;SDS011;63092;43.582;19.528;2022-11-15T05:56:02;62.35;;;34.22;;
73359;SDS011;63092;43.582;19.528;2022-11-15T05:58:28;74.65;;;39.22;;
73359;SDS011;63092;43.582;19.528;2022-11-15T06:00:57;75.73;;;39.30;;
73359;SDS011;63092;43.582;19.528;2022-11-15T06:03:23;76.82;;;40.75;;
73359;SDS011;63092;43.582;19.528;2022-11-15T06:05:48;82.53;;;41.90;;
73359;SDS011;63092;43.582;19.528;2022-11-15T06:08:14;76.85;;;40.83;;
73359;SDS011;63092;43.582;19.528;2022-11-15T06:10:40;87.90;;;46.10;;
73359;SDS011;63092;43.582;19.528;2022-11-15T06:13:05;85.85;;;42.53;;
73359;SDS011;63092;43.582;19.528;2022-11-15T06:15:32;219.48;;;83.45;;
73359;SDS011;63092;43.582;19.528;2022-11-15T06:20:27;93.70;;;47.10;;
73359;SDS011;63092;43.582;19.528;2022-11-15T06:23:00;110.47;;;48.55;;
73359;SDS011;63092;43.582;19.528;2022-11-15T06:25:28;224.48;;;88.82;;
73359;SDS011;63092;43.582;19.528;2022-11-15T06:27:55;91.68;;;46.80;;
73359;SDS011;63092;43.582;19.528;2022-11-15T06:30:22;104.63;;;50.72;;
73359;SDS011;63092;43.582;19.528;2022-11-15T06:32:49;140.95;;;78.18;;
73359;SDS011;63092;43.582;19.528;2022-11-15T06:35:15;125.28;;;68.22;;
73359;SDS011;63092;43.582;19.528;2022-11-15T06:37:41;107.35;;;57.60;;
73359;SDS011;63092;43.582;19.528;2022-11-15T06:40:08;98.07;;;51.60;;
73359;SDS011;63092;43.582;19.528;2022-11-15T06:42:34;154.65;;;79.88;;
73359;SDS011;63092;43.582;19.528;2022-11-15T06:45:01;98.88;;;49.42;;
73359;SDS011;63092;43.582;19.528;2022-11-15T06:47:27;105.07;;;51.53;;
73359;SDS011;63092;43.582;19.528;2022-11-15T06:49:53;111.72;;;59.42;;
73359;SDS011;63092;43.582;19.528;2022-11-15T06:52:18;137.32;;;61.33;;
73359;SDS011;63092;43.582;19.528;2022-11-15T06:54:44;104.80;;;54.90;;
73359;SDS011;63092;43.582;19.528;2022-11-15T06:57:10;96.93;;;49.08;;
73359;SDS011;63092;43.582;19.528;2022-11-15T06:59:36;87.72;;;43.30;;
73359;SDS011;63092;43.582;19.528;2022-11-15T07:02:02;94.03;;;45.45;;
73359;SDS011;63092;43.582;19.528;2022-11-15T07:04:28;90.50;;;47.08;;
73359;SDS011;63092;43.582;19.528;2022-11-15T07:06:53;93.07;;;52.63;;
73359;SDS011;63092;43.582;19.528;2022-11-15T07:09:19;80.22;;;43.00;;
73359;SDS011;63092;43.582;19.528;2022-11-15T07:11:45;127.18;;;67.78;;
73359;SDS011;63092;43.582;19.528;2022-11-15T07:14:10;80.80;;;43.67;;
73359;SDS011;63092;43.582;19.528;2022-11-15T07:16:36;80.03;;;43.22;;
73359;SDS011;63092;43.582;19.528;2022-11-15T07:19:02;76.60;;;41.22;;
73359;SDS011;63092;43.582;19.528;2022-11-15T07:21:28;110.82;;;59.33;;
73359;SDS011;63092;43.582;19.528;2022-11-15T07:23:55;90.05;;;50.22;;
73359;SDS011;63092;43.582;19.528;2022-11-15T07:26:21;76.65;;;42.20;;
73359;SDS011;63092;43.582;19.528;2022-11-15T07:28:46;73.57;;;40.40;;
73359;SDS011;63092;43.582;19.528;2022-11-15T07:31:12;75.80;;;40.90;;
73359;SDS011;63092;43.582;19.528;2022-11-15T07:33:38;73.40;;;36.83;;
73359;SDS011;63092;43.582;19.528;2022-11-15T07:36:04;88.00;;;43.75;;
73359;SDS011;63092;43.582;19.528;2022-11-15T07:38:31;92.75;;;48.40;;
73359;SDS011;63092;43.582;19.528;2022-11-15T07:41:04;86.35;;;44.15;;
73359;SDS011;63092;43.582;19.528;2022-11-15T07:43:31;70.63;;;35.78;;
73359;SDS011;63092;43.582;19.528;2022-11-15T07:46:07;103.45;;;53.58;;
73359;SDS011;63092;43.582;19.528;2022-11-15T07:48:36;109.72;;;55.83;;
73359;SDS011;63092;43.582;19.528;2022-11-15T07:51:04;86.03;;;43.30;;
73359;SDS011;63092;43.582;19.528;2022-11-15T07:53:31;78.68;;;41.92;;
73359;SDS011;63092;43.582;19.528;2022-11-15T07:55:57;85.47;;;44.95;;
73359;SDS011;63092;43.582;19.528;2022-11-15T07:58:22;82.72;;;41.65;;
73359;SDS011;63092;43.582;19.528;2022-11-15T08:00:48;84.22;;;46.05;;
73359;SDS011;63092;43.582;19.528;2022-11-15T08:03:14;71.88;;;38.58;;
73359;SDS011;63092;43.582;19.528;2022-11-15T08:05:41;62.85;;;33.03;;
73359;SDS011;63092;43.582;19.528;2022-11-15T08:08:14;66.38;;;36.05;;
73359;SDS011;63092;43.582;19.528;2022-11-15T08:10:40;88.78;;;46.50;;
73359;SDS011;63092;43.582;19.528;2022-11-15T08:13:07;97.38;;;49.00;;
73359;SDS011;63092;43.582;19.528;2022-11-15T08:15:34;116.90;;;58.50;;
73359;SDS011;63092;43.582;19.528;2022-11-15T08:18:06;96.40;;;48.38;;
73359;SDS011;63092;43.582;19.528;2022-11-15T08:20:38;62.58;;;30.58;;
73359;SDS011;63092;43.582;19.528;2022-11-15T08:23:04;63.63;;;31.65;;
73359;SDS011;63092;43.582;19.528;2022-11-15T08:25:32;58.70;;;32.08;;
73359;SDS011;63092;43.582;19.528;2022-11-15T08:28:00;55.40;;;30.15;;
73359;SDS011;63092;43.582;19.528;2022-11-15T08:30:29;70.78;;;33.70;;
73359;SDS011;63092;43.582;19.528;2022-11-15T08:32:59;72.72;;;38.17;;
73359;SDS011;63092;43.582;19.528;2022-11-15T08:35:25;79.72;;;42.45;;
73359;SDS011;63092;43.582;19.528;2022-11-15T08:37:52;94.22;;;48.75;;
73359;SDS011;63092;43.582;19.528;2022-11-15T08:40:18;116.90;;;64.38;;
73359;SDS011;63092;43.582;19.528;2022-11-15T08:42:47;75.85;;;42.67;;
73359;SDS011;63092;43.582;19.528;2022-11-15T08:45:13;76.07;;;39.63;;
73359;SDS011;63092;43.582;19.528;2022-11-15T08:47:39;79.82;;;37.30;;
73359;SDS011;63092;43.582;19.528;2022-11-15T08:50:05;68.80;;;37.67;;
73359;SDS011;63092;43.582;19.528;2022-11-15T08:52:31;70.18;;;39.63;;
73359;SDS011;63092;43.582;19.528;2022-11-15T08:54:57;62.17;;;33.20;;
73359;SDS011;63092;43.582;19.528;2022-11-15T08:57:23;45.42;;;25.90;;
73359;SDS011;63092;43.582;19.528;2022-11-15T08:59:49;44.47;;;23.08;;
73359;SDS011;63092;43.582;19.528;2022-11-15T09:02:15;34.65;;;19.00;;
73359;SDS011;63092;43.582;19.528;2022-11-15T09:04:41;42.10;;;22.67;;
73359;SDS011;63092;43.582;19.528;2022-11-15T09:07:08;37.03;;;20.80;;
73359;SDS011;63092;43.582;19.528;2022-11-15T09:12:03;66.63;;;30.80;;
73359;SDS011;63092;43.582;19.528;2022-11-15T09:14:29;49.05;;;23.75;;
73359;SDS011;63092;43.582;19.528;2022-11-15T09:16:55;39.97;;;19.88;;
73359;SDS011;63092;43.582;19.528;2022-11-15T09:19:21;25.70;;;14.13;;
73359;SDS011;63092;43.582;19.528;2022-11-15T09:21:46;40.58;;;22.10;;
73359;SDS011;63092;43.582;19.528;2022-11-15T09:24:12;28.35;;;17.33;;
73359;SDS011;63092;43.582;19.528;2022-11-15T09:26:38;37.38;;;20.77;;
73359;SDS011;63092;43.582;19.528;2022-11-15T09:29:04;34.85;;;20.83;;
73359;SDS011;63092;43.582;19.528;2022-11-15T09:31:30;43.47;;;26.17;;
73359;SDS011;63092;43.582;19.528;2022-11-15T09:33:55;38.38;;;22.52;;
73359;SDS011;63092;43.582;19.528;2022-11-15T09:36:21;39.65;;;22.20;;
73359;SDS011;63092;43.582;19.528;2022-11-15T09:38:47;34.88;;;20.52;;
73359;SDS011;63092;43.582;19.528;2022-11-15T09:49:00;29.27;;;17.33;;
73359;SDS011;63092;43.582;19.528;2022-11-15T09:51:36;29.80;;;17.05;;
73359;SDS011;63092;43.582;19.528;2022-11-15T09:57:08;23.52;;;13.57;;
73359;SDS011;63092;43.582;19.528;2022-11-15T10:05:06;20.85;;;12.85;;
73359;SDS011;63092;43.582;19.528;2022-11-15T10:10:19;23.52;;;14.52;;
73359;SDS011;63092;43.582;19.528;2022-11-15T10:12:55;22.45;;;13.90;;
73359;SDS011;63092;43.582;19.528;2022-11-15T10:15:21;24.50;;;15.02;;
73359;SDS011;63092;43.582;19.528;2022-11-15T10:20:32;23.35;;;13.68;;
73359;SDS011;63092;43.582;19.528;2022-11-15T10:23:10;26.83;;;14.02;;
73359;SDS011;63092;43.582;19.528;2022-11-15T10:25:38;23.50;;;14.18;;
73359;SDS011;63092;43.582;19.528;2022-11-15T10:30:53;26.70;;;14.40;;
73359;SDS011;63092;43.582;19.528;2022-11-15T10:35:49;34.10;;;17.52;;
73359;SDS011;63092;43.582;19.528;2022-11-15T10:41:36;24.25;;;14.88;;
73359;SDS011;63092;43.582;19.528;2022-11-15T10:44:17;26.52;;;14.73;;
73359;SDS011;63092;43.582;19.528;2022-11-15T10:49:28;22.83;;;13.57;;
73359;SDS011;63092;43.582;19.528;2022-11-15T10:52:15;26.25;;;16.02;;
73359;SDS011;63092;43.582;19.528;2022-11-15T10:54:45;25.50;;;14.57;;
73359;SDS011;63092;43.582;19.528;2022-11-15T10:57:17;28.27;;;18.15;;
73359;SDS011;63092;43.582;19.528;2022-11-15T10:59:48;31.50;;;18.90;;
73359;SDS011;63092;43.582;19.528;2022-11-15T11:02:26;46.72;;;25.42;;
73359;SDS011;63092;43.582;19.528;2022-11-15T11:04:52;33.83;;;22.83;;
73359;SDS011;63092;43.582;19.528;2022-11-15T11:07:25;27.92;;;18.88;;
73359;SDS011;63092;43.582;19.528;2022-11-15T11:09:59;29.67;;;18.02;;
73359;SDS011;63092;43.582;19.528;2022-11-15T11:12:41;30.80;;;20.30;;
73359;SDS011;63092;43.582;19.528;2022-11-15T11:15:11;26.35;;;17.45;;
73359;SDS011;63092;43.582;19.528;2022-11-15T11:23:02;28.83;;;18.25;;
73359;SDS011;63092;43.582;19.528;2022-11-15T11:39:00;22.30;;;13.48;;
73359;SDS011;63092;43.582;19.528;2022-11-15T11:47:51;24.17;;;14.00;;
73359;SDS011;63092;43.582;19.528;2022-11-15T11:50:40;21.25;;;13.38;;
73359;SDS011;63092;43.582;19.528;2022-11-15T11:58:19;26.13;;;16.60;;
73359;SDS011;63092;43.582;19.528;2022-11-15T12:01:12;26.80;;;17.02;;
73359;SDS011;63092;43.582;19.528;2022-11-15T12:03:57;24.02;;;15.15;;
73359;SDS011;63092;43.582;19.528;2022-11-15T12:06:33;25.00;;;15.82;;
73359;SDS011;63092;43.582;19.528;2022-11-15T12:09:15;55.45;;;36.03;;
73359;SDS011;63092;43.582;19.528;2022-11-15T12:17:10;27.30;;;16.60;;
73359;SDS011;63092;43.582;19.528;2022-11-15T12:19:37;22.17;;;13.68;;
73359;SDS011;63092;43.582;19.528;2022-11-15T12:27:37;22.80;;;13.82;;
73359;SDS011;63092;43.582;19.528;2022-11-15T12:30:14;26.10;;;15.90;;
73359;SDS011;63092;43.582;19.528;2022-11-15T12:32:53;20.10;;;11.40;;
73359;SDS011;63092;43.582;19.528;2022-11-15T12:35:27;17.92;;;11.13;;
73359;SDS011;63092;43.582;19.528;2022-11-15T12:38:00;16.50;;;11.32;;
73359;SDS011;63092;43.582;19.528;2022-11-15T12:40:33;18.13;;;11.02;;
73359;SDS011;63092;43.582;19.528;2022-11-15T12:45:42;18.67;;;12.50;;
73359;SDS011;63092;43.582;19.528;2022-11-15T12:53:26;15.38;;;11.20;;
73359;SDS011;63092;43.582;19.528;2022-11-15T13:01:52;23.30;;;13.75;;
73359;SDS011;63092;43.582;19.528;2022-11-15T13:04:12;22.55;;;14.20;;
73359;SDS011;63092;43.582;19.528;2022-11-15T13:07:07;21.48;;;13.43;;
73359;SDS011;63092;43.582;19.528;2022-11-15T13:14:49;20.73;;;13.23;;
73359;SDS011;63092;43.582;19.528;2022-11-15T13:19:58;22.27;;;13.82;;
73359;SDS011;63092;43.582;19.528;2022-11-15T13:22:27;19.00;;;12.40;;
73359;SDS011;63092;43.582;19.528;2022-11-15T13:30:41;34.50;;;20.95;;
73359;SDS011;63092;43.582;19.528;2022-11-15T13:33:34;33.92;;;19.80;;
73359;SDS011;63092;43.582;19.528;2022-11-15T13:38:58;36.40;;;24.35;;
73359;SDS011;63092;43.582;19.528;2022-11-15T13:41:27;38.65;;;25.15;;
73359;SDS011;63092;43.582;19.528;2022-11-15T13:43:55;31.88;;;21.33;;
73359;SDS011;63092;43.582;19.528;2022-11-15T13:46:23;37.30;;;22.63;;
73359;SDS011;63092;43.582;19.528;2022-11-15T13:48:58;74.63;;;39.50;;
73359;SDS011;63092;43.582;19.528;2022-11-15T13:56:34;21.35;;;13.50;;
73359;SDS011;63092;43.582;19.528;2022-11-15T13:59:08;38.60;;;28.13;;
73359;SDS011;63092;43.582;19.528;2022-11-15T14:01:49;63.20;;;34.90;;
73359;SDS011;63092;43.582;19.528;2022-11-15T14:04:18;43.63;;;24.50;;
73359;SDS011;63092;43.582;19.528;2022-11-15T14:06:46;29.40;;;17.90;;
73359;SDS011;63092;43.582;19.528;2022-11-15T14:09:24;38.78;;;19.02;;
73359;SDS011;63092;43.582;19.528;2022-11-15T14:11:58;32.58;;;16.83;;
73359;SDS011;63092;43.582;19.528;2022-11-15T14:14:25;24.58;;;15.20;;
73359;SDS011;63092;43.582;19.528;2022-11-15T14:16:54;64.38;;;34.97;;
73359;SDS011;63092;43.582;19.528;2022-11-15T14:22:09;37.05;;;23.88;;
73359;SDS011;63092;43.582;19.528;2022-11-15T14:24:38;41.67;;;26.27;;
73359;SDS011;63092;43.582;19.528;2022-11-15T14:29:53;92.22;;;45.40;;
73359;SDS011;63092;43.582;19.528;2022-11-15T14:32:21;77.90;;;39.03;;
73359;SDS011;63092;43.582;19.528;2022-11-15T14:34:49;98.88;;;50.90;;
73359;SDS011;63092;43.582;19.528;2022-11-15T14:37:32;112.07;;;50.90;;
73359;SDS011;63092;43.582;19.528;2022-11-15T14:40:03;60.03;;;30.08;;
73359;SDS011;63092;43.582;19.528;2022-11-15T14:42:30;120.38;;;51.72;;
73359;SDS011;63092;43.582;19.528;2022-11-15T14:44:56;115.72;;;48.80;;
73359;SDS011;63092;43.582;19.528;2022-11-15T14:47:22;153.27;;;68.47;;
73359;SDS011;63092;43.582;19.528;2022-11-15T14:49:48;65.68;;;42.13;;
73359;SDS011;63092;43.582;19.528;2022-11-15T14:54:49;85.68;;;46.25;;
73359;SDS011;63092;43.582;19.528;2022-11-15T14:57:15;82.72;;;44.33;;
73359;SDS011;63092;43.582;19.528;2022-11-15T14:59:40;59.78;;;36.35;;
73359;SDS011;63092;43.582;19.528;2022-11-15T15:02:13;364.00;;;205.43;;
73359;SDS011;63092;43.582;19.528;2022-11-15T15:04:42;81.00;;;48.67;;
73359;SDS011;63092;43.582;19.528;2022-11-15T15:07:08;75.07;;;45.40;;
73359;SDS011;63092;43.582;19.528;2022-11-15T15:09:34;210.57;;;107.38;;
73359;SDS011;63092;43.582;19.528;2022-11-15T15:12:00;256.52;;;134.02;;
73359;SDS011;63092;43.582;19.528;2022-11-15T15:14:25;86.22;;;49.13;;
73359;SDS011;63092;43.582;19.528;2022-11-15T15:16:51;66.78;;;42.40;;
73359;SDS011;63092;43.582;19.528;2022-11-15T15:19:17;44.90;;;31.33;;
73359;SDS011;63092;43.582;19.528;2022-11-15T15:21:42;77.88;;;47.97;;
73359;SDS011;63092;43.582;19.528;2022-11-15T15:24:13;93.65;;;56.63;;
73359;SDS011;63092;43.582;19.528;2022-11-15T15:26:42;76.75;;;47.67;;
73359;SDS011;63092;43.582;19.528;2022-11-15T15:29:08;68.93;;;42.95;;
73359;SDS011;63092;43.582;19.528;2022-11-15T15:31:34;73.72;;;46.53;;
73359;SDS011;63092;43.582;19.528;2022-11-15T15:34:00;69.38;;;42.03;;
73359;SDS011;63092;43.582;19.528;2022-11-15T15:36:26;127.50;;;79.60;;
73359;SDS011;63092;43.582;19.528;2022-11-15T15:38:52;107.20;;;63.55;;
73359;SDS011;63092;43.582;19.528;2022-11-15T15:41:18;100.75;;;58.33;;
73359;SDS011;63092;43.582;19.528;2022-11-15T15:43:43;76.18;;;48.75;;
73359;SDS011;63092;43.582;19.528;2022-11-15T15:46:10;62.97;;;38.22;;
73359;SDS011;63092;43.582;19.528;2022-11-15T15:48:38;51.25;;;31.15;;
73359;SDS011;63092;43.582;19.528;2022-11-15T15:51:04;65.07;;;42.38;;
73359;SDS011;63092;43.582;19.528;2022-11-15T15:53:30;90.40;;;56.53;;
73359;SDS011;63092;43.582;19.528;2022-11-15T15:55:56;102.57;;;63.10;;
73359;SDS011;63092;43.582;19.528;2022-11-15T15:58:23;110.95;;;72.10;;
73359;SDS011;63092;43.582;19.528;2022-11-15T16:00:49;96.03;;;61.65;;
73359;SDS011;63092;43.582;19.528;2022-11-15T16:03:15;98.65;;;58.17;;
73359;SDS011;63092;43.582;19.528;2022-11-15T16:05:41;72.32;;;42.30;;
73359;SDS011;63092;43.582;19.528;2022-11-15T16:08:20;178.80;;;115.75;;
73359;SDS011;63092;43.582;19.528;2022-11-15T16:10:48;178.25;;;106.03;;
73359;SDS011;63092;43.582;19.528;2022-11-15T16:13:14;182.27;;;107.88;;
73359;SDS011;63092;43.582;19.528;2022-11-15T16:15:40;175.27;;;104.65;;
73359;SDS011;63092;43.582;19.528;2022-11-15T16:18:08;153.50;;;91.82;;
73359;SDS011;63092;43.582;19.528;2022-11-15T16:20:40;71.10;;;46.67;;
73359;SDS011;63092;43.582;19.528;2022-11-15T16:23:15;54.42;;;35.58;;
73359;SDS011;63092;43.582;19.528;2022-11-15T16:28:26;90.07;;;53.95;;
73359;SDS011;63092;43.582;19.528;2022-11-15T16:33:27;166.63;;;85.32;;
73359;SDS011;63092;43.582;19.528;2022-11-15T16:35:53;130.38;;;73.40;;
73359;SDS011;63092;43.582;19.528;2022-11-15T16:38:19;111.40;;;65.18;;
73359;SDS011;63092;43.582;19.528;2022-11-15T16:40:45;93.65;;;54.53;;
73359;SDS011;63092;43.582;19.528;2022-11-15T16:43:10;138.27;;;80.15;;
73359;SDS011;63092;43.582;19.528;2022-11-15T16:45:36;80.72;;;51.83;;
73359;SDS011;63092;43.582;19.528;2022-11-15T16:48:03;89.78;;;58.33;;
73359;SDS011;63092;43.582;19.528;2022-11-15T16:50:30;99.55;;;57.78;;
73359;SDS011;63092;43.582;19.528;2022-11-15T16:52:59;68.50;;;40.50;;
73359;SDS011;63092;43.582;19.528;2022-11-15T16:55:26;72.93;;;47.60;;
73359;SDS011;63092;43.582;19.528;2022-11-15T16:57:53;101.22;;;62.15;;
73359;SDS011;63092;43.582;19.528;2022-11-15T17:00:22;177.07;;;105.40;;
73359;SDS011;63092;43.582;19.528;2022-11-15T17:02:49;129.20;;;79.03;;
73359;SDS011;63092;43.582;19.528;2022-11-15T17:05:16;122.05;;;75.80;;